createdAt,value
2019-04-26T00:00:48.424Z,19.70
2019-04-26T00:03:23.686Z,22.20
2019-04-26T00:05:53.622Z,21.50
2019-04-26T00:08:23.808Z,22.10
2019-04-26T00:11:09.635Z,21.07
2019-04-26T00:13:57.534Z,21.13
2019-04-26T00:16:47.483Z,22.17
2019-04-26T00:19:17.903Z,23.20
2019-04-26T00:21:47.947Z,23.43
2019-04-26T00:24:17.631Z,22.97
2019-04-26T00:26:47.366Z,21.30
2019-04-26T00:29:17.656Z,19.90
2019-04-26T00:31:47.672Z,21.57
2019-04-26T00:34:17.554Z,23.07
2019-04-26T00:36:47.551Z,20.50
2019-04-26T00:39:18.142Z,23.00
2019-04-26T00:41:48.142Z,22.00
2019-04-26T00:44:18.613Z,23.50
2019-04-26T00:46:50.854Z,22.77
2019-04-26T00:49:23.256Z,23.80
2019-04-26T00:51:54.421Z,23.17
2019-04-26T00:54:26.270Z,22.63
2019-04-26T00:56:56.469Z,23.03
2019-04-26T00:59:27.465Z,22.30
2019-04-26T01:02:02.995Z,22.60
2019-04-26T01:04:33.298Z,23.30
2019-04-26T01:07:03.410Z,23.87
2019-04-26T01:09:33.538Z,25.20
2019-04-26T01:12:03.231Z,22.13
2019-04-26T01:14:32.639Z,22.40
2019-04-26T01:17:03.067Z,22.70
2019-04-26T01:19:33.434Z,23.67
2019-04-26T01:22:07.850Z,22.50
2019-04-26T01:24:40.334Z,23.60
2019-04-26T01:27:11.022Z,23.83
2019-04-26T01:29:42.850Z,24.40
2019-04-26T01:32:13.959Z,24.00
2019-04-26T01:34:46.867Z,23.23
2019-04-26T01:37:18.134Z,24.53
2019-04-26T01:39:54.418Z,26.07
2019-04-26T01:42:42.088Z,24.30
2019-04-26T01:45:27.944Z,22.57
2019-04-26T01:48:01.989Z,23.17
2019-04-26T01:50:34.198Z,24.10
2019-04-26T01:53:05.586Z,24.60
2019-04-26T01:55:35.700Z,23.77
2019-04-26T01:58:07.449Z,24.23
2019-04-26T02:00:59.179Z,23.47
2019-04-26T02:03:30.120Z,23.37
2019-04-26T02:05:59.617Z,24.33
2019-04-26T02:08:30.354Z,25.43
2019-04-26T02:11:00.391Z,22.37
2019-04-26T02:13:30.951Z,23.13
2019-04-26T02:16:01.000Z,23.97
2019-04-26T02:18:31.498Z,25.63
2019-04-26T02:21:18.785Z,23.87
2019-04-26T02:23:54.508Z,24.63
2019-04-26T02:26:34.844Z,23.50
2019-04-26T02:29:08.627Z,23.37
2019-04-26T02:31:42.848Z,23.70
2019-04-26T02:34:13.916Z,24.23
2019-04-26T02:36:57.640Z,22.67
2019-04-26T02:39:23.646Z,24.27
2019-04-26T02:41:57.195Z,24.03
2019-04-26T02:44:36.465Z,23.93
2019-04-26T02:47:46.386Z,23.43
2019-04-26T02:50:25.163Z,23.90
2019-04-26T02:53:08.536Z,25.60
2019-04-26T02:56:12.651Z,24.10
2019-04-26T02:59:05.326Z,24.30
2019-04-26T03:01:36.611Z,23.53
2019-04-26T03:04:07.424Z,24.00
2019-04-26T03:06:41.184Z,25.63
2019-04-26T03:09:12.579Z,26.23
2019-04-26T03:11:45.626Z,24.97
2019-04-26T03:15:12.134Z,25.10
2019-04-26T03:17:43.060Z,24.17
2019-04-26T03:20:17.139Z,25.77
2019-04-26T03:22:57.312Z,24.60
2019-04-26T03:25:42.296Z,25.43
2019-04-26T03:28:22.706Z,25.00
2019-04-26T03:31:19.281Z,24.90
2019-04-26T03:34:10.262Z,25.57
2019-04-26T03:37:21.048Z,24.30
2019-04-26T03:39:59.700Z,25.23
2019-04-26T03:42:53.679Z,23.80
2019-04-26T03:45:58.384Z,25.80
2019-04-26T03:48:58.802Z,23.47
2019-04-26T03:52:01.245Z,23.83
2019-04-26T03:54:35.568Z,24.17
2019-04-26T03:57:28.056Z,24.57
2019-04-26T04:00:26.948Z,23.03
2019-04-26T04:03:31.188Z,23.00
2019-04-26T04:06:04.223Z,24.97
2019-04-26T04:08:51.029Z,23.67
2019-04-26T04:11:24.734Z,23.93
2019-04-26T04:14:03.757Z,22.80
2019-04-26T04:16:58.083Z,23.33
2019-04-26T04:20:05.868Z,21.63
2019-04-26T04:22:41.771Z,23.17
2019-04-26T04:25:17.670Z,22.17
2019-04-26T04:27:56.394Z,23.70
2019-04-26T04:31:00.099Z,21.57
2019-04-26T04:33:52.674Z,20.77
2019-04-26T04:36:27.195Z,22.30
2019-04-26T04:39:23.096Z,22.30
2019-04-26T04:42:12.298Z,22.70
2019-04-26T04:45:30.741Z,23.33
2019-04-26T04:48:24.776Z,22.37
2019-04-26T04:51:15.710Z,21.97
2019-04-26T04:53:57.211Z,21.87
2019-04-26T04:56:41.696Z,20.20
2019-04-26T04:59:17.916Z,22.33
2019-04-26T05:02:33.735Z,21.33
2019-04-26T05:06:06.602Z,21.97
2019-04-26T05:08:45.516Z,22.83
2019-04-26T05:11:24.322Z,22.27
2019-04-26T05:14:01.545Z,24.77
2019-04-26T05:16:46.476Z,23.43
2019-04-26T05:19:48.967Z,23.77
2019-04-26T05:22:55.373Z,24.10
2019-04-26T05:26:27.300Z,22.77
2019-04-26T05:29:50.363Z,23.60
2019-04-26T05:32:54.720Z,23.83
2019-04-26T05:36:06.482Z,24.07
2019-04-26T05:39:21.472Z,26.10
2019-04-26T05:43:00.142Z,23.40
2019-04-26T05:46:05.726Z,24.63
2019-04-26T05:49:21.223Z,25.63
2019-04-26T05:52:39.144Z,24.50
2019-04-26T05:55:42.919Z,25.50
2019-04-26T05:58:59.846Z,23.70
2019-04-26T06:02:11.660Z,24.57
2019-04-26T06:05:16.266Z,23.10
2019-04-26T06:08:31.345Z,24.93
2019-04-26T06:11:09.513Z,24.07
2019-04-26T06:14:40.288Z,22.53
2019-04-26T06:18:24.861Z,22.20
2019-04-26T06:21:19.336Z,22.53
2019-04-26T06:24:56.287Z,22.23
2019-04-26T06:27:42.352Z,23.90
2019-04-26T06:30:21.298Z,24.10
2019-04-26T06:33:26.991Z,23.83
2019-04-26T06:36:00.100Z,23.40
2019-04-26T06:39:41.783Z,21.80
2019-04-26T06:42:37.267Z,24.03
2019-04-26T06:45:51.959Z,21.30
2019-04-26T06:48:39.327Z,21.63
2019-04-26T06:51:24.695Z,22.30
2019-04-26T06:54:14.240Z,21.20
2019-04-26T06:57:20.365Z,20.90
2019-04-26T07:00:08.788Z,20.60
2019-04-26T07:03:13.742Z,19.73
2019-04-26T07:05:47.608Z,20.57
2019-04-26T07:08:41.879Z,20.37
2019-04-26T07:11:59.351Z,20.23
2019-04-26T07:15:08.894Z,19.90
2019-04-26T07:17:49.022Z,19.63
2019-04-26T07:20:43.231Z,20.07
2019-04-26T07:24:20.670Z,18.47
2019-04-26T07:27:27.719Z,20.07
2019-04-26T07:30:30.737Z,19.90
2019-04-26T07:33:25.354Z,19.50
2019-04-26T07:36:47.631Z,19.80
2019-04-26T07:40:15.051Z,22.50
2019-04-26T07:43:03.271Z,21.13
2019-04-26T07:45:52.820Z,19.00
2019-04-26T07:48:37.986Z,20.60
2019-04-26T07:51:58.054Z,17.90
2019-04-26T07:54:58.737Z,22.10
2019-04-26T07:58:08.978Z,15.88
2019-04-26T08:00:47.571Z,16.50
2019-04-26T08:03:30.244Z,16.73
2019-04-26T08:06:09.602Z,14.80
2019-04-26T08:08:46.802Z,17.20
2019-04-26T08:11:22.942Z,15.57
2019-04-26T08:14:10.675Z,15.03
2019-04-26T08:17:00.377Z,15.73
2019-04-26T08:19:33.487Z,15.00
2019-04-26T08:22:17.923Z,14.90
2019-04-26T08:24:40.782Z,14.87
2019-04-26T08:27:23.269Z,14.67
2019-04-26T08:29:55.247Z,16.10
2019-04-26T08:32:32.040Z,14.67
2019-04-26T08:35:16.848Z,15.70
2019-04-26T08:37:52.940Z,14.77
2019-04-26T08:40:30.972Z,14.50
2019-04-26T08:43:22.923Z,14.23
2019-04-26T08:46:13.241Z,14.40
2019-04-26T08:49:06.494Z,14.10
2019-04-26T08:51:38.239Z,14.30
2019-04-26T08:54:14.869Z,14.93
2019-04-26T08:56:49.627Z,14.50
2019-04-26T08:59:24.557Z,14.03
2019-04-26T09:02:06.555Z,13.97
2019-04-26T09:04:45.981Z,13.60
2019-04-26T09:07:21.584Z,12.83
2019-04-26T09:09:57.432Z,13.50
2019-04-26T09:12:29.891Z,12.33
2019-04-26T09:15:04.670Z,12.30
2019-04-26T09:17:34.858Z,12.70
2019-04-26T09:20:07.890Z,12.70
2019-04-26T09:22:48.598Z,13.37
2019-04-26T09:25:25.138Z,12.87
2019-04-26T09:28:12.903Z,13.63
2019-04-26T09:31:01.559Z,12.53
2019-04-26T09:33:44.156Z,11.63
2019-04-26T09:36:14.850Z,12.07
2019-04-26T09:38:44.733Z,12.10
2019-04-26T09:41:14.718Z,12.10
2019-04-26T09:43:54.987Z,10.90
2019-04-26T09:46:48.469Z,10.73
2019-04-26T09:49:33.671Z,10.83
2019-04-26T09:52:04.598Z,10.43
2019-04-26T09:54:35.161Z,11.50
2019-04-26T09:57:04.993Z,11.30
2019-04-26T09:59:36.355Z,10.80
2019-04-26T10:02:06.536Z,12.47
2019-04-26T10:04:36.635Z,12.03
2019-04-26T10:07:06.346Z,11.37
2019-04-26T10:09:35.816Z,14.27
2019-04-26T10:12:14.049Z,10.70
2019-04-26T10:14:58.536Z,10.70
2019-04-26T10:17:30.192Z,9.50
2019-04-26T10:20:00.010Z,10.37
2019-04-26T10:22:32.498Z,9.00
2019-04-26T10:25:07.659Z,9.30
2019-04-26T10:27:36.383Z,9.20
2019-04-26T10:30:09.476Z,9.10
2019-04-26T10:32:39.830Z,8.20
2019-04-26T10:35:10.732Z,9.80
2019-04-26T10:37:43.920Z,10.87
2019-04-26T10:40:16.048Z,9.27
2019-04-26T10:42:45.855Z,9.63
2019-04-26T10:45:16.696Z,8.87
2019-04-26T10:47:46.885Z,6.80
2019-04-26T10:50:19.207Z,7.90
2019-04-26T10:52:55.581Z,7.90
2019-04-26T10:55:50.188Z,8.93
2019-04-26T10:58:23.215Z,8.50
2019-04-26T11:00:54.715Z,7.87
2019-04-26T11:03:25.163Z,8.40
2019-04-26T11:05:55.386Z,7.77
2019-04-26T11:08:25.561Z,8.00
2019-04-26T11:10:56.203Z,9.43
2019-04-26T11:13:26.203Z,9.47
2019-04-26T11:15:56.539Z,9.67
2019-04-26T11:18:28.352Z,9.07
2019-04-26T11:20:58.981Z,9.00
2019-04-26T11:23:28.484Z,8.70
2019-04-26T11:26:01.746Z,8.80
2019-04-26T11:28:30.216Z,8.40
2019-04-26T11:31:00.448Z,9.33
2019-04-26T11:33:30.986Z,8.60
2019-04-26T11:36:03.398Z,8.07
2019-04-26T11:38:33.588Z,8.60
2019-04-26T11:41:06.452Z,6.90
2019-04-26T11:43:36.305Z,7.50
2019-04-26T11:46:06.042Z,7.20
2019-04-26T11:48:36.542Z,6.93
2019-04-26T11:51:06.720Z,8.00
2019-04-26T11:53:36.193Z,6.50
2019-04-26T11:56:06.367Z,6.30
2019-04-26T11:58:36.199Z,6.27
2019-04-26T12:01:08.035Z,6.13
2019-04-26T12:03:39.907Z,6.37
2019-04-26T12:06:21.241Z,6.07
2019-04-26T12:08:53.722Z,6.23
2019-04-26T12:11:31.567Z,5.90
2019-04-26T12:13:55.364Z,7.23
2019-04-26T12:16:26.486Z,6.53
2019-04-26T12:18:56.468Z,7.00
2019-04-26T12:21:26.362Z,7.57
2019-04-26T12:23:56.435Z,5.87
2019-04-26T12:26:26.774Z,6.60
2019-04-26T12:28:58.179Z,5.60
2019-04-26T12:31:28.192Z,5.47
2019-04-26T12:33:58.072Z,5.80
2019-04-26T12:36:28.271Z,5.53
2019-04-26T12:39:02.225Z,5.93
2019-04-26T12:41:40.386Z,6.03
2019-04-26T12:44:05.470Z,6.23
2019-04-26T12:46:44.565Z,5.90
2019-04-26T12:49:14.759Z,6.20
2019-04-26T12:51:47.286Z,5.87
2019-04-26T12:54:16.935Z,6.40
2019-04-26T12:56:46.907Z,6.10
2019-04-26T12:59:17.183Z,6.87
2019-04-26T13:01:47.874Z,5.80
2019-04-26T13:04:18.090Z,5.73
2019-04-26T13:06:53.555Z,5.87
2019-04-26T13:09:26.579Z,5.47
2019-04-26T13:12:14.532Z,6.53
2019-04-26T13:15:16.850Z,7.60
2019-04-26T13:17:51.025Z,7.17
2019-04-26T13:20:24.356Z,7.63
2019-04-26T13:22:54.298Z,6.80
2019-04-26T13:25:26.638Z,7.27
2019-04-26T13:27:56.903Z,7.20
2019-04-26T13:30:33.054Z,7.30
2019-04-26T13:32:58.539Z,7.43
2019-04-26T13:35:29.217Z,7.20
2019-04-26T13:37:59.591Z,7.50
2019-04-26T13:40:30.658Z,7.90
2019-04-26T13:43:00.568Z,7.67
2019-04-26T13:46:01.437Z,8.40
2019-04-26T13:48:46.265Z,7.67
2019-04-26T13:51:17.791Z,8.10
2019-04-26T13:53:47.451Z,7.40
2019-04-26T13:56:26.070Z,7.00
2019-04-26T13:58:58.356Z,7.77
2019-04-26T14:01:32.868Z,7.33
2019-04-26T14:04:06.867Z,8.00
2019-04-26T14:06:34.827Z,8.10
2019-04-26T14:09:13.503Z,7.33
2019-04-26T14:11:45.433Z,7.43
2019-04-26T14:14:18.062Z,8.83
2019-04-26T14:16:52.093Z,7.53
2019-04-26T14:19:22.494Z,8.10
2019-04-26T14:21:55.005Z,8.53
2019-04-26T14:24:53.119Z,7.57
2019-04-26T14:27:32.902Z,7.90
2019-04-26T14:30:06.499Z,7.93
2019-04-26T14:32:34.329Z,7.70
2019-04-26T14:35:17.697Z,7.07
2019-04-26T14:37:50.012Z,6.70
2019-04-26T14:40:23.538Z,7.23
2019-04-26T14:43:06.481Z,7.43
2019-04-26T14:45:28.892Z,5.60
2019-04-26T14:48:00.105Z,7.47
2019-04-26T14:50:32.071Z,7.30
2019-04-26T14:53:04.941Z,8.33
2019-04-26T14:55:35.292Z,8.37
2019-04-26T14:58:05.191Z,7.70
2019-04-26T15:00:37.964Z,7.70
2019-04-26T15:03:23.990Z,9.53
2019-04-26T15:06:00.249Z,7.93
2019-04-26T15:08:32.088Z,7.80
2019-04-26T15:11:07.081Z,8.57
2019-04-26T15:13:40.435Z,8.00
2019-04-26T15:16:11.704Z,7.20
2019-04-26T15:18:42.641Z,7.10
2019-04-26T15:21:13.219Z,8.30
2019-04-26T15:23:43.300Z,8.13
2019-04-26T15:26:13.051Z,7.97
2019-04-26T15:28:50.130Z,7.73
2019-04-26T15:31:17.055Z,7.67
2019-04-26T15:33:48.661Z,6.70
2019-04-26T15:36:18.611Z,7.77
2019-04-26T15:38:50.676Z,6.87
2019-04-26T15:41:34.059Z,6.67
2019-04-26T15:44:28.782Z,7.73
2019-04-26T15:47:34.495Z,8.60
2019-04-26T15:50:26.820Z,8.87
2019-04-26T15:52:56.802Z,8.23
2019-04-26T15:55:26.810Z,8.10
2019-04-26T15:57:57.525Z,7.37
2019-04-26T16:00:32.701Z,7.80
2019-04-26T16:03:03.800Z,7.83
2019-04-26T16:05:33.815Z,7.63
2019-04-26T16:08:04.658Z,8.03
2019-04-26T16:10:38.393Z,8.40
2019-04-26T16:13:20.987Z,7.20
2019-04-26T16:15:48.718Z,7.87
2019-04-26T16:18:22.413Z,7.37
2019-04-26T16:20:53.373Z,8.60
2019-04-26T16:23:38.025Z,7.43
2019-04-26T16:25:57.171Z,7.27
2019-04-26T16:28:55.615Z,7.10
2019-04-26T16:31:42.209Z,7.10
2019-04-26T16:34:11.852Z,7.37
2019-04-26T16:36:45.135Z,6.80
2019-04-26T16:39:14.191Z,7.43
2019-04-26T16:41:45.814Z,8.07
2019-04-26T16:44:19.345Z,7.93
2019-04-26T16:46:53.877Z,7.97
2019-04-26T16:49:23.443Z,7.40
2019-04-26T16:52:01.541Z,7.50
2019-04-26T16:54:26.706Z,7.43
2019-04-26T16:56:59.113Z,7.00
2019-04-26T16:59:29.459Z,8.63
2019-04-26T17:02:02.475Z,6.80
2019-04-26T17:04:36.293Z,8.37
2019-04-26T17:07:06.491Z,9.43
2019-04-26T17:09:54.779Z,8.23
2019-04-26T17:12:10.488Z,8.67
2019-04-26T17:14:40.696Z,7.60
2019-04-26T17:17:14.315Z,8.00
2019-04-26T17:19:44.847Z,7.30
2019-04-26T17:22:55.797Z,7.97
2019-04-26T17:25:32.772Z,8.53
2019-04-26T17:28:04.227Z,7.70
2019-04-26T17:30:41.278Z,7.40
2019-04-26T17:33:06.099Z,7.83
2019-04-26T17:35:36.621Z,8.80
2019-04-26T17:38:07.438Z,7.67
2019-04-26T17:40:38.056Z,7.80
2019-04-26T17:43:13.201Z,8.03
2019-04-26T17:45:44.237Z,7.57
2019-04-26T17:48:14.816Z,7.83
2019-04-26T17:50:45.373Z,7.50
2019-04-26T17:53:26.109Z,8.23
2019-04-26T17:55:50.973Z,8.80
2019-04-26T17:58:27.583Z,8.10
2019-04-26T18:00:51.552Z,8.70
2019-04-26T18:03:23.358Z,7.83
2019-04-26T18:05:58.350Z,8.70
2019-04-26T18:08:37.021Z,8.60
2019-04-26T18:11:04.026Z,9.40
2019-04-26T18:13:34.415Z,8.83
2019-04-26T18:16:05.531Z,9.03
2019-04-26T18:18:54.415Z,8.10
2019-04-26T18:21:56.486Z,8.70
2019-04-26T18:24:23.465Z,8.07
2019-04-26T18:26:59.048Z,9.30
2019-04-26T18:29:29.375Z,7.77
2019-04-26T18:31:59.113Z,8.80
2019-04-26T18:34:30.554Z,8.60
2019-04-26T18:37:07.025Z,8.97
2019-04-26T18:39:33.766Z,9.50
2019-04-26T18:42:05.843Z,8.10
2019-04-26T18:44:39.347Z,8.70
2019-04-26T18:47:27.613Z,8.67
2019-04-26T18:49:58.539Z,9.50
2019-04-26T18:52:33.053Z,8.23
2019-04-26T18:55:13.034Z,9.40
2019-04-26T18:57:47.409Z,8.40
2019-04-26T19:00:26.505Z,9.37
2019-04-26T19:02:55.518Z,10.30
2019-04-26T19:05:29.836Z,9.10
2019-04-26T19:07:58.610Z,9.20
2019-04-26T19:10:29.488Z,9.10
2019-04-26T19:13:09.632Z,9.87
2019-04-26T19:16:03.654Z,10.20
2019-04-26T19:18:54.457Z,9.33
2019-04-26T19:21:32.285Z,9.13
2019-04-26T19:24:07.434Z,8.80
2019-04-26T19:26:35.113Z,9.40
2019-04-26T19:29:15.529Z,9.90
2019-04-26T19:31:37.076Z,10.50
2019-04-26T19:34:07.457Z,9.87
2019-04-26T19:36:37.230Z,10.97
2019-04-26T19:39:08.422Z,10.00
2019-04-26T19:41:39.463Z,9.77
2019-04-26T19:44:10.289Z,10.87
2019-04-26T19:46:47.690Z,11.40
2019-04-26T19:49:36.784Z,10.90
2019-04-26T19:52:22.218Z,11.40
2019-04-26T19:55:13.942Z,10.87
2019-04-26T19:57:57.305Z,10.97
2019-04-26T20:00:27.389Z,11.50
2019-04-26T20:02:57.026Z,10.97
2019-04-26T20:05:28.126Z,11.00
2019-04-26T20:08:02.923Z,11.03
2019-04-26T20:10:34.507Z,11.77
2019-04-26T20:13:03.042Z,10.13
2019-04-26T20:15:36.333Z,11.70
2019-04-26T20:18:06.558Z,10.20
2019-04-26T20:20:37.417Z,11.70
2019-04-26T20:23:08.384Z,10.60
2019-04-26T20:25:39.268Z,10.57
2019-04-26T20:28:09.017Z,11.70
2019-04-26T20:31:05.923Z,11.33
2019-04-26T20:33:31.246Z,11.50
2019-04-26T20:36:04.565Z,12.07
2019-04-26T20:38:35.880Z,12.00
2019-04-26T20:41:05.456Z,11.30
2019-04-26T20:43:40.775Z,11.83
2019-04-26T20:46:14.546Z,11.70
2019-04-26T20:48:39.613Z,11.77
2019-04-26T20:51:10.984Z,12.63
2019-04-26T20:53:43.469Z,11.40
2019-04-26T20:56:18.255Z,12.33
2019-04-26T20:58:47.116Z,12.57
2019-04-26T21:01:16.850Z,12.40
2019-04-26T21:03:47.216Z,12.30
2019-04-26T21:06:18.625Z,12.20
2019-04-26T21:08:52.196Z,12.47
2019-04-26T21:11:21.762Z,12.93
2019-04-26T21:13:52.265Z,13.50
2019-04-26T21:16:22.942Z,12.40
2019-04-26T21:18:53.119Z,14.10
2019-04-26T21:21:23.583Z,13.87
2019-04-26T21:23:54.277Z,14.00
2019-04-26T21:26:37.096Z,12.23
2019-04-26T21:29:20.577Z,13.17
2019-04-26T21:32:16.404Z,14.07
2019-04-26T21:34:50.484Z,12.97
2019-04-26T21:37:37.015Z,14.07
2019-04-26T21:40:16.921Z,13.67
2019-04-26T21:42:47.232Z,12.30
2019-04-26T21:45:21.583Z,13.27
2019-04-26T21:47:49.928Z,13.50
2019-04-26T21:50:21.815Z,13.47
2019-04-26T21:52:54.124Z,12.23
2019-04-26T21:55:27.745Z,13.57
2019-04-26T21:57:55.957Z,15.30
2019-04-26T22:00:57.923Z,14.00
2019-04-26T22:03:28.724Z,12.83
2019-04-26T22:05:59.428Z,13.10
2019-04-26T22:08:32.974Z,12.53
2019-04-26T22:11:04.439Z,14.90
2019-04-26T22:13:43.246Z,14.90
2019-04-26T22:16:38.062Z,15.80
2019-04-26T22:19:23.808Z,15.00
2019-04-26T22:22:18.790Z,14.53
2019-04-26T22:24:50.608Z,13.43
2019-04-26T22:27:21.967Z,14.67
2019-04-26T22:29:55.674Z,15.87
2019-04-26T22:32:25.960Z,13.97
2019-04-26T22:34:57.554Z,15.23
2019-04-26T22:37:30.040Z,13.80
2019-04-26T22:40:00.645Z,16.07
2019-04-26T22:42:40.335Z,15.40
2019-04-26T22:45:17.992Z,14.67
2019-04-26T22:47:58.890Z,15.00
2019-04-26T22:50:29.825Z,14.30
2019-04-26T22:53:01.520Z,15.40
2019-04-26T22:55:31.141Z,14.23
2019-04-26T22:58:03.162Z,14.80
2019-04-26T23:00:39.486Z,16.30
2019-04-26T23:03:09.912Z,17.53
2019-04-26T23:05:44.667Z,15.70
2019-04-26T23:08:14.866Z,16.07
2019-04-26T23:10:49.332Z,15.43
2019-04-26T23:13:41.201Z,14.80
2019-04-26T23:16:28.723Z,15.67
2019-04-26T23:19:20.191Z,14.83
2019-04-26T23:21:55.823Z,16.20
2019-04-26T23:24:24.195Z,15.50
2019-04-26T23:26:54.551Z,15.80
2019-04-26T23:29:24.980Z,15.43
2019-04-26T23:31:55.567Z,15.53
2019-04-26T23:34:27.135Z,16.87
2019-04-26T23:36:57.211Z,16.90
2019-04-26T23:39:27.205Z,15.33
2019-04-26T23:41:57.625Z,15.97
2019-04-26T23:44:27.713Z,16.47
2019-04-26T23:47:01.346Z,15.90
2019-04-26T23:49:29.671Z,15.87
2019-04-26T23:52:00.192Z,15.83
2019-04-26T23:54:32.257Z,16.60
2019-04-26T23:57:02.923Z,16.03
2019-04-26T23:59:33.739Z,17.17
